Cumbernauld, United Kingdom

7:03 AM BST on July 07, 2015 (GMT +0100)
Abronhill | | Change Station
CLOSE
Current Station
Personal Weather Station
Location: Cumbernauld, NORTH LANARKSHIRE
Elevation: 406 ft
Nearby Weather Stations

Elev 406 ft 55.96 °N, 3.95 °W | Updated 15 seconds ago

Rain
Rain
57.6 °F
Feels Like 57.6 °F
N
6.2
Wind Variable Wind from SSW
Gusts 11.4 mph

Today
High -- | Low -- °F
--% Chance of Precip.
Yesterday
High -- | Low -- °F
Precip. -- in
4:40 AM 10:00 PM
Waning Gibbous, 68% visible
Pressure 29.56 in
Visibility 6.2 miles
Clouds Few 1600 ft
Scattered Clouds 2800 ft
Mostly Cloudy 3400 ft
Dew Point 56 °F
Humidity 96%
Rainfall 0.07 in
Snow Depth Not available.
UV 0.0 out of 12
Pollen Not available.
Air Quality Not available.
Flu Activity Not available.
METAR EGPH 070550Z 24010KT 9999 FEW016 SCT028 BKN034 15/13 Q1001

More Conditions Fewer Conditions

Pressure 29.56 in
Visibility 6.2 miles
Clouds Few 1600 ft
Scattered Clouds 2800 ft
Mostly Cloudy 3400 ft
Dew Point 56 °F
Humidity 96%
Rainfall 0.07 in
Snow Depth Not available.
UV 0.0 out of 12
Pollen Not available.
Air Quality Not available.
Flu Activity Not available.
METAR EGPH 070550Z 24010KT 9999 FEW016 SCT028 BKN034 15/13 Q1001

More Conditions Fewer Conditions

10-Day Weather Forecast

×

Almanac

Astronomy

Jul. 07, 2015 Rise Set
Actual Time
Civil Twilight
Nautical Twilight
Astronomical Twilight
Moon
Length of Visible Light
Length of Day
Tomorrow will be .
, % of the Moon is Illuminated

Today's Extremes

Country Highs Country Lows

Community

WunderPhotos

Upload Photos

1,835,740 photos uploaded!

WunderBlogs® & News

Nearby

Air Quality

  Air Quality AQ Index Pollutant
Not available.

Snow Depth

Station Depth Elevation

Earthquake Activity

City Distance Mag. Time & Date
Minimum magnitude displayed is 2.5.

Coastal Water Temperatures

Place Temperature

Stations

Nearby Weather Stations

Station Location Temp. Windchill Dew Point Humidity Wind Precip. Elev Updated Type